Map

Track Data

SID SEASON NUMBER BASIN SUBBASIN NAME ISO_TIME NATURE LAT LON WMO_WIND WMO_PRES WMO_AGENCY TRACK_TYPE DIST2LAND LANDFALL IFLAG USA_AGENCY USA_ATCF_ID USA_LAT USA_LON USA_RECORD USA_STATUS USA_WIND USA_PRES USA_SSHS USA_R34_NE USA_R34_SE USA_R34_SW USA_R34_NW USA_R50_NE USA_R50_SE USA_R50_SW USA_R50_NW USA_R64_NE USA_R64_SE USA_R64_SW USA_R64_NW USA_POCI USA_ROCI USA_RMW USA_EYE TOKYO_LAT TOKYO_LON TOKYO_GRADE TOKYO_WIND TOKYO_PRES TOKYO_R50_DIR TOKYO_R50_LONG TOKYO_R50_SHORT TOKYO_R30_DIR TOKYO_R30_LONG TOKYO_R30_SHORT TOKYO_LAND CMA_LAT CMA_LON CMA_CAT CMA_WIND CMA_PRES HKO_LAT HKO_LON HKO_CAT HKO_WIND HKO_PRES NEWDELHI_LAT NEWDELHI_LON NEWDELHI_GRADE NEWDELHI_WIND NEWDELHI_PRES NEWDELHI_CI NEWDELHI_DP NEWDELHI_POCI REUNION_LAT REUNION_LON REUNION_TYPE REUNION_WIND REUNION_PRES REUNION_TNUM REUNION_CI REUNION_RMW REUNION_R34_NE REUNION_R34_SE REUNION_R34_SW REUNION_R34_NW REUNION_R50_NE REUNION_R50_SE REUNION_R50_SW REUNION_R50_NW REUNION_R64_NE REUNION_R64_SE REUNION_R64_SW REUNION_R64_NW BOM_LAT BOM_LON BOM_TYPE BOM_WIND BOM_PRES BOM_TNUM BOM_CI BOM_RMW BOM_R34_NE BOM_R34_SE BOM_R34_SW BOM_R34_NW BOM_R50_NE BOM_R50_SE BOM_R50_SW BOM_R50_NW BOM_R64_NE BOM_R64_SE BOM_R64_SW BOM_R64_NW BOM_ROCI BOM_POCI BOM_EYE BOM_POS_METHOD BOM_PRES_METHOD NADI_LAT NADI_LON NADI_CAT NADI_WIND NADI_PRES WELLINGTON_LAT WELLINGTON_LON WELLINGTON_WIND WELLINGTON_PRES DS824_LAT DS824_LON DS824_STAGE DS824_WIND DS824_PRES TD9636_LAT TD9636_LON TD9636_STAGE TD9636_WIND TD9636_PRES TD9635_LAT TD9635_LON TD9635_WIND TD9635_PRES TD9635_ROCI NEUMANN_LAT NEUMANN_LON NEUMANN_CLASS NEUMANN_WIND NEUMANN_PRES MLC_LAT MLC_LON MLC_CLASS MLC_WIND MLC_PRES USA_GUST BOM_GUST BOM_GUST_PER REUNION_GUST REUNION_GUST_PER USA_SEAHGT USA_SEARAD_NE USA_SEARAD_SE USA_SEARAD_SW USA_SEARAD_NW STORM_SPEED STORM_DIR
1871305S04100 1872 30 SI WA NOT_NAMED 1871-11-01 06:00:00 NR -4.00000 100.300 spur-split 169 169 _____O________ -1 -4.00000 100.300 99 9.90000 2 262
1871305S04100 1872 30 SI WA NOT_NAMED 1871-11-01 09:00:00 NR -4.01424 100.193 spur-split 179 179 _____P________ -1 -4.01424 100.193 99 2 262
1871305S04100 1872 30 SI WA NOT_NAMED 1871-11-01 12:00:00 NR -4.02951 100.081 spur-split 189 189 _____P________ -1 -4.02951 100.081 99 2 262
1871305S04100 1872 30 SI WA NOT_NAMED 1871-11-01 15:00:00 NR -4.04682 99.9585 spur-split 199 199 _____P________ -1 -4.04682 99.9585 99 3 262
1871305S04100 1872 30 SI WA NOT_NAMED 1871-11-01 18:00:00 NR -4.06722 99.8200 spur-split 223 223 _____P________ -1 -4.06722 99.8200 99 3 261
1871305S04100 1872 30 SI WA NOT_NAMED 1871-11-01 21:00:00 NR -4.09172 99.6601 spur-split 233 233 _____P________ -1 -4.09172 99.6601 99 4 261
1871305S04100 1872 30 SI WA NOT_NAMED 1871-11-02 00:00:00 NR -4.12134 99.4738 spur-split 252 252 _____P________ -1 -4.12134 99.4738 99 4 261
1871305S04100 1872 30 SI WA NOT_NAMED 1871-11-02 03:00:00 NR -4.15710 99.2555 spur-split 269 268 _____P________ -1 -4.15710 99.2555 99 5 261
1871305S04100 1872 30 SI WA NOT_NAMED 1871-11-02 06:00:00 NR -4.20000 99.0000 spur-split 269 269 _____O________ -1 -4.20000 99.0000 99 9.90000 6 260
1871305S04100 1872 30 SI WA NOT_NAMED 1871-11-02 09:00:00 NR -4.25079 98.7040 spur-split 283 283 _____P________ -1 -4.25079 98.7040 99 6 260
1871305S04100 1872 30 SI WA NOT_NAMED 1871-11-02 12:00:00 NR -4.30930 98.3720 spur-split 290 290 _____P________ -1 -4.30930 98.3720 99 7 260
1871305S04100 1872 30 SI WA NOT_NAMED 1871-11-02 15:00:00 NR -4.37511 98.0109 spur-split 315 315 _____P________ -1 -4.37511 98.0109 99 8 259
1871305S04100 1872 30 SI WA NOT_NAMED 1871-11-02 18:00:00 NR -4.44782 97.6272 spur-split 335 335 _____P________ -1 -4.44782 97.6272 99 8 259
1871305S04100 1872 30 SI WA NOT_NAMED 1871-11-02 21:00:00 NR -4.52704 97.2276 spur-split 366 366 _____P________ -1 -4.52704 97.2276 99 8 258
1871305S04100 1872 30 SI WA NOT_NAMED 1871-11-03 00:00:00 NR -4.61238 96.8188 spur-split 400 400 _____P________ -1 -4.61238 96.8188 99 8 258
1871305S04100 1872 30 SI WA NOT_NAMED 1871-11-03 03:00:00 NR -4.70348 96.4073 spur-split 436 436 _____P________ -1 -4.70348 96.4073 99 8 257
1871305S04100 1872 30 SI WA NOT_NAMED 1871-11-03 06:00:00 NR -4.80000 96.0000 spur-split 473 473 _____O________ -1 -4.80000 96.0000 99 9.90000 8 256
1871305S04100 1872 30 SI WA NOT_NAMED 1871-11-03 09:00:00 NR -4.89064 95.6382 spur-split 512 512 _____P________ -1 -4.89064 95.6382 99 7 255
1871305S04100 1872 30 SI WA NOT_NAMED 1871-11-03 12:00:00 NR -4.98670 95.2780 spur-split 544 544 _____P________ -1 -4.98670 95.2780 99 7 255
1871305S04100 1872 30 SI WA NOT_NAMED 1871-11-03 15:00:00 NR -5.08861 94.9168 spur-split 585 585 _____P________ -1 -5.08861 94.9168 99 8 254
1871305S04100 1872 30 SI WA NOT_NAMED 1871-11-03 18:00:00 NR -5.19676 94.5518 spur-split 618 618 _____P________ -1 -5.19676 94.5518 99 8 253
1871305S04100 1872 30 SI WA NOT_NAMED 1871-11-03 21:00:00 NR -5.31158 94.1803 spur-split 659 659 _____P________ -1 -5.31158 94.1803 99 8 252
1871305S04100 1872 30 SI WA NOT_NAMED 1871-11-04 00:00:00 NR -5.43346 93.7997 spur-split 702 702 _____P________ -1 -5.43346 93.7997 99 8 252
1871305S04100 1872 30 SI WA NOT_NAMED 1871-11-04 03:00:00 NR -5.56280 93.4072 spur-split 751 751 _____P________ -1 -5.56280 93.4072 99 8 251
1871305S04100 1872 30 SI WA NOT_NAMED 1871-11-04 06:00:00 NR -5.70000 93.0000 spur-split 793 793 _____O________ -1 -5.70000 93.0000 99 9.90000 9 252
1871305S04100 1872 30 SI WA NOT_NAMED 1871-11-04 09:00:00 NR -5.85192 92.5322 spur-split 852 852 _____P________ -1 -5.85192 92.5322 99 10 252
1871305S04100 1872 30 SI WA NOT_NAMED 1871-11-04 12:00:00 NR -6.01323 92.0449 spur-split 905 905 _____P________ -1 -6.01323 92.0449 99 10 251
1871305S04100 1872 30 SI WA NOT_NAMED 1871-11-04 15:00:00 NR -6.18071 91.5485 spur-split 963 963 _____P________ -1 -6.18071 91.5485 99 10 251
1871305S04100 1872 30 SI WA NOT_NAMED 1871-11-04 18:00:00 NR -6.35117 91.0536 spur-split 1013 1013 _____P________ -1 -6.35117 91.0536 99 10 251
1871305S04100 1872 30 SI WA NOT_NAMED 1871-11-04 21:00:00 NR -6.52143 90.5706 spur-split 1066 1066 _____P________ -1 -6.52143 90.5706 99 10 250
1871305S04100 1872 30 SI WA NOT_NAMED 1871-11-05 00:00:00 NR -6.68838 90.1103 spur-split 1125 1125 _____P________ -1 -6.68838 90.1103 99 9 250
1871305S04100 1872 30 SI MM NOT_NAMED 1871-11-05 03:00:00 NR -6.84892 89.6832 spur-split 1169 1169 _____P________ -1 -6.84892 89.6832 99 9 249
1871305S04100 1872 30 SI MM NOT_NAMED 1871-11-05 06:00:00 NR -7.00000 89.3000 spur-split 1219 1219 _____O________ -1 -7.00000 89.3000 99 9.90000 8 248
1871305S04100 1872 30 SI MM NOT_NAMED 1871-11-05 09:00:00 NR -7.13939 88.9683 spur-split 1253 1253 _____P________ -1 -7.13939 88.9683 99 7 246
1871305S04100 1872 30 SI MM NOT_NAMED 1871-11-05 12:00:00 NR -7.26794 88.6844 spur-split 1293 1293 _____P________ -1 -7.26794 88.6844 99 6 245
1871305S04100 1872 30 SI MM NOT_NAMED 1871-11-05 15:00:00 NR -7.38727 88.4412 spur-split 1327 1327 _____P________ -1 -7.38727 88.4412 99 5 243
1871305S04100 1872 30 SI MM NOT_NAMED 1871-11-05 18:00:00 NR -7.49895 88.2322 spur-split 1352 1352 _____P________ -1 -7.49895 88.2322 99 4 241
1871305S04100 1872 30 SI MM NOT_NAMED 1871-11-05 21:00:00 NR -7.60453 88.0503 spur-split 1367 1367 _____P________ -1 -7.60453 88.0503 99 4 239
1871305S04100 1872 30 SI MM NOT_NAMED 1871-11-06 00:00:00 NR -7.70555 87.8889 spur-split 1392 1392 _____P________ -1 -7.70555 87.8889 99 4 237
1871305S04100 1872 30 SI MM NOT_NAMED 1871-11-06 03:00:00 NR -7.80354 87.7411 spur-split 1417 1417 _____P________ -1 -7.80354 87.7411 99 3 236
1871305S04100 1872 30 SI MM NOT_NAMED 1871-11-06 06:00:00 NR -7.90000 87.6000 spur-split 1432 _____O________ -1 -7.90000 87.6000 99 9.90000 3 235

About IBTrACS Database

This database is a web-friendly format of International Best Track Archive for Climate Stewardship (IBTrACS), a global best track data archive curated by NOAA dating back to 1842.

Updated: 2021-10-25